sensor_id;sensor_type;location;lat;lon;timestamp;temperature;humidity
33994;DHT22;20673;48.980;8.138;2023-11-19T00:00:47;9.40;99.90
33994;DHT22;20673;48.980;8.138;2023-11-19T00:03:13;9.40;99.90
33994;DHT22;20673;48.980;8.138;2023-11-19T00:05:39;9.40;99.90
33994;DHT22;20673;48.980;8.138;2023-11-19T00:08:07;9.50;99.90
33994;DHT22;20673;48.980;8.138;2023-11-19T00:10:34;9.40;99.90
33994;DHT22;20673;48.980;8.138;2023-11-19T00:13:00;9.50;99.90
33994;DHT22;20673;48.980;8.138;2023-11-19T00:15:28;9.50;99.90
33994;DHT22;20673;48.980;8.138;2023-11-19T00:17:54;9.50;99.90
33994;DHT22;20673;48.980;8.138;2023-11-19T00:20:20;9.50;99.90
33994;DHT22;20673;48.980;8.138;2023-11-19T00:22:49;9.50;99.90
33994;DHT22;20673;48.980;8.138;2023-11-19T00:25:19;9.60;99.90
33994;DHT22;20673;48.980;8.138;2023-11-19T00:27:47;9.60;99.90
33994;DHT22;20673;48.980;8.138;2023-11-19T00:30:14;9.60;99.90
33994;DHT22;20673;48.980;8.138;2023-11-19T00:32:41;9.60;99.90
33994;DHT22;20673;48.980;8.138;2023-11-19T00:35:08;9.70;99.90
33994;DHT22;20673;48.980;8.138;2023-11-19T00:37:35;9.70;99.90
33994;DHT22;20673;48.980;8.138;2023-11-19T00:40:02;9.80;99.90
33994;DHT22;20673;48.980;8.138;2023-11-19T00:42:31;9.70;99.90
33994;DHT22;20673;48.980;8.138;2023-11-19T00:44:58;9.80;99.90
33994;DHT22;20673;48.980;8.138;2023-11-19T00:47:24;9.80;99.90
33994;DHT22;20673;48.980;8.138;2023-11-19T00:49:50;9.80;99.90
33994;DHT22;20673;48.980;8.138;2023-11-19T00:52:17;9.80;99.90
33994;DHT22;20673;48.980;8.138;2023-11-19T00:54:44;9.80;99.90
33994;DHT22;20673;48.980;8.138;2023-11-19T00:57:10;9.90;99.90
33994;DHT22;20673;48.980;8.138;2023-11-19T00:59:36;9.90;99.90
33994;DHT22;20673;48.980;8.138;2023-11-19T01:02:03;9.90;99.90
33994;DHT22;20673;48.980;8.138;2023-11-19T01:04:35;9.90;99.90
33994;DHT22;20673;48.980;8.138;2023-11-19T01:07:02;9.90;99.90
33994;DHT22;20673;48.980;8.138;2023-11-19T01:09:30;9.90;99.90
33994;DHT22;20673;48.980;8.138;2023-11-19T01:12:01;10.00;99.90
33994;DHT22;20673;48.980;8.138;2023-11-19T01:14:28;10.00;99.90
33994;DHT22;20673;48.980;8.138;2023-11-19T01:16:54;10.00;99.90
33994;DHT22;20673;48.980;8.138;2023-11-19T01:19:23;10.00;99.90
33994;DHT22;20673;48.980;8.138;2023-11-19T01:21:50;10.00;99.90
33994;DHT22;20673;48.980;8.138;2023-11-19T01:24:17;10.00;99.90
33994;DHT22;20673;48.980;8.138;2023-11-19T01:26:43;10.00;99.90
33994;DHT22;20673;48.980;8.138;2023-11-19T01:29:13;10.00;99.90
33994;DHT22;20673;48.980;8.138;2023-11-19T01:31:40;10.10;99.90
33994;DHT22;20673;48.980;8.138;2023-11-19T01:34:07;10.10;99.90
33994;DHT22;20673;48.980;8.138;2023-11-19T01:36:34;10.10;99.90
33994;DHT22;20673;48.980;8.138;2023-11-19T01:39:00;10.10;99.90
33994;DHT22;20673;48.980;8.138;2023-11-19T01:41:26;10.10;99.90
33994;DHT22;20673;48.980;8.138;2023-11-19T01:43:53;10.10;99.90
33994;DHT22;20673;48.980;8.138;2023-11-19T01:46:20;10.10;99.90
33994;DHT22;20673;48.980;8.138;2023-11-19T01:48:46;10.10;99.90
33994;DHT22;20673;48.980;8.138;2023-11-19T01:51:13;10.20;99.90
33994;DHT22;20673;48.980;8.138;2023-11-19T01:53:43;10.10;99.90
33994;DHT22;20673;48.980;8.138;2023-11-19T01:56:13;10.10;99.90
33994;DHT22;20673;48.980;8.138;2023-11-19T01:58:41;10.10;99.90
33994;DHT22;20673;48.980;8.138;2023-11-19T02:01:08;10.10;99.90
33994;DHT22;20673;48.980;8.138;2023-11-19T02:03:37;10.10;99.90
33994;DHT22;20673;48.980;8.138;2023-11-19T02:06:04;10.10;99.90
33994;DHT22;20673;48.980;8.138;2023-11-19T02:08:31;10.10;99.90
33994;DHT22;20673;48.980;8.138;2023-11-19T02:10:57;10.10;99.90
33994;DHT22;20673;48.980;8.138;2023-11-19T02:13:26;10.10;99.90
33994;DHT22;20673;48.980;8.138;2023-11-19T02:15:54;10.20;99.90
33994;DHT22;20673;48.980;8.138;2023-11-19T02:18:27;10.20;99.90
33994;DHT22;20673;48.980;8.138;2023-11-19T02:20:54;10.20;99.90
33994;DHT22;20673;48.980;8.138;2023-11-19T02:23:21;10.20;99.90
33994;DHT22;20673;48.980;8.138;2023-11-19T02:26:03;10.10;99.90
33994;DHT22;20673;48.980;8.138;2023-11-19T02:28:42;10.20;99.90
33994;DHT22;20673;48.980;8.138;2023-11-19T02:31:09;10.20;99.90
33994;DHT22;20673;48.980;8.138;2023-11-19T02:33:39;10.20;99.90
33994;DHT22;20673;48.980;8.138;2023-11-19T02:36:07;10.20;99.90
33994;DHT22;20673;48.980;8.138;2023-11-19T02:38:34;10.20;99.90
33994;DHT22;20673;48.980;8.138;2023-11-19T02:41:05;10.20;99.90
33994;DHT22;20673;48.980;8.138;2023-11-19T02:43:36;10.30;99.90
33994;DHT22;20673;48.980;8.138;2023-11-19T02:46:03;10.30;99.90
33994;DHT22;20673;48.980;8.138;2023-11-19T02:48:33;10.30;99.90
33994;DHT22;20673;48.980;8.138;2023-11-19T02:51:02;10.30;99.90
33994;DHT22;20673;48.980;8.138;2023-11-19T02:53:33;10.30;99.90
33994;DHT22;20673;48.980;8.138;2023-11-19T02:55:59;10.30;99.90
33994;DHT22;20673;48.980;8.138;2023-11-19T02:58:30;10.40;99.90
33994;DHT22;20673;48.980;8.138;2023-11-19T03:00:56;10.30;99.90
33994;DHT22;20673;48.980;8.138;2023-11-19T03:03:27;10.40;99.90
33994;DHT22;20673;48.980;8.138;2023-11-19T03:05:57;10.40;99.90
33994;DHT22;20673;48.980;8.138;2023-11-19T03:08:23;10.40;99.90
33994;DHT22;20673;48.980;8.138;2023-11-19T03:10:49;10.50;99.90
33994;DHT22;20673;48.980;8.138;2023-11-19T03:13:15;10.50;99.90
33994;DHT22;20673;48.980;8.138;2023-11-19T03:15:42;10.50;99.90
33994;DHT22;20673;48.980;8.138;2023-11-19T03:18:09;10.50;99.90
33994;DHT22;20673;48.980;8.138;2023-11-19T03:20:35;10.50;99.90
33994;DHT22;20673;48.980;8.138;2023-11-19T03:23:01;10.50;99.90
33994;DHT22;20673;48.980;8.138;2023-11-19T03:25:27;10.50;99.90
33994;DHT22;20673;48.980;8.138;2023-11-19T03:27:59;10.50;99.90
33994;DHT22;20673;48.980;8.138;2023-11-19T03:30:28;10.50;99.90
33994;DHT22;20673;48.980;8.138;2023-11-19T03:32:55;10.60;99.90
33994;DHT22;20673;48.980;8.138;2023-11-19T03:35:23;10.60;99.90
33994;DHT22;20673;48.980;8.138;2023-11-19T03:37:50;10.60;99.90
33994;DHT22;20673;48.980;8.138;2023-11-19T03:40:17;10.60;99.90
33994;DHT22;20673;48.980;8.138;2023-11-19T03:42:46;10.70;99.90
33994;DHT22;20673;48.980;8.138;2023-11-19T03:45:13;10.70;99.90
33994;DHT22;20673;48.980;8.138;2023-11-19T03:47:40;10.70;99.90
33994;DHT22;20673;48.980;8.138;2023-11-19T03:50:06;10.80;99.90
33994;DHT22;20673;48.980;8.138;2023-11-19T03:52:35;10.70;99.90
33994;DHT22;20673;48.980;8.138;2023-11-19T03:55:01;10.70;99.90
33994;DHT22;20673;48.980;8.138;2023-11-19T03:57:29;10.70;99.90
33994;DHT22;20673;48.980;8.138;2023-11-19T03:59:56;10.80;99.90
33994;DHT22;20673;48.980;8.138;2023-11-19T04:02:24;10.80;99.90
33994;DHT22;20673;48.980;8.138;2023-11-19T04:04:52;10.80;99.90
33994;DHT22;20673;48.980;8.138;2023-11-19T04:07:18;10.90;99.90
33994;DHT22;20673;48.980;8.138;2023-11-19T04:09:44;10.90;99.90
33994;DHT22;20673;48.980;8.138;2023-11-19T04:12:12;10.90;99.90
33994;DHT22;20673;48.980;8.138;2023-11-19T04:14:38;10.90;99.90
33994;DHT22;20673;48.980;8.138;2023-11-19T04:17:04;10.90;99.90
33994;DHT22;20673;48.980;8.138;2023-11-19T04:19:30;10.90;99.90
33994;DHT22;20673;48.980;8.138;2023-11-19T04:21:58;10.90;99.90
33994;DHT22;20673;48.980;8.138;2023-11-19T04:24:24;10.80;99.90
33994;DHT22;20673;48.980;8.138;2023-11-19T04:26:50;10.90;99.90
33994;DHT22;20673;48.980;8.138;2023-11-19T04:29:18;10.90;99.90
33994;DHT22;20673;48.980;8.138;2023-11-19T04:31:45;10.90;99.90
33994;DHT22;20673;48.980;8.138;2023-11-19T04:34:11;10.80;99.90
33994;DHT22;20673;48.980;8.138;2023-11-19T04:36:38;10.90;99.90
33994;DHT22;20673;48.980;8.138;2023-11-19T04:39:05;10.90;99.90
33994;DHT22;20673;48.980;8.138;2023-11-19T04:41:50;10.90;99.90
33994;DHT22;20673;48.980;8.138;2023-11-19T04:44:20;10.90;99.90
33994;DHT22;20673;48.980;8.138;2023-11-19T04:46:46;11.00;99.90
33994;DHT22;20673;48.980;8.138;2023-11-19T04:49:13;11.00;99.90
33994;DHT22;20673;48.980;8.138;2023-11-19T04:51:44;11.00;99.90
33994;DHT22;20673;48.980;8.138;2023-11-19T04:54:14;11.00;99.90
33994;DHT22;20673;48.980;8.138;2023-11-19T04:56:40;11.10;99.90
33994;DHT22;20673;48.980;8.138;2023-11-19T04:59:08;11.00;99.90
33994;DHT22;20673;48.980;8.138;2023-11-19T05:01:34;11.10;99.90
33994;DHT22;20673;48.980;8.138;2023-11-19T05:04:01;11.10;99.90
33994;DHT22;20673;48.980;8.138;2023-11-19T05:06:30;11.10;99.90
33994;DHT22;20673;48.980;8.138;2023-11-19T05:08:59;11.10;99.90
33994;DHT22;20673;48.980;8.138;2023-11-19T05:11:35;11.20;99.90
33994;DHT22;20673;48.980;8.138;2023-11-19T05:14:05;11.20;99.90
33994;DHT22;20673;48.980;8.138;2023-11-19T05:16:31;11.20;99.90
33994;DHT22;20673;48.980;8.138;2023-11-19T05:18:58;11.20;99.90
33994;DHT22;20673;48.980;8.138;2023-11-19T05:21:24;11.20;99.90
33994;DHT22;20673;48.980;8.138;2023-11-19T05:23:50;11.30;99.90
33994;DHT22;20673;48.980;8.138;2023-11-19T05:26:19;11.30;99.90
33994;DHT22;20673;48.980;8.138;2023-11-19T05:28:47;11.30;99.90
33994;DHT22;20673;48.980;8.138;2023-11-19T05:31:14;11.30;99.90
33994;DHT22;20673;48.980;8.138;2023-11-19T05:33:41;11.30;99.90
33994;DHT22;20673;48.980;8.138;2023-11-19T05:36:08;11.40;99.90
33994;DHT22;20673;48.980;8.138;2023-11-19T05:38:35;11.40;99.90
33994;DHT22;20673;48.980;8.138;2023-11-19T05:41:03;11.40;99.90
33994;DHT22;20673;48.980;8.138;2023-11-19T05:43:31;11.40;99.90
33994;DHT22;20673;48.980;8.138;2023-11-19T05:45:58;11.50;99.90
33994;DHT22;20673;48.980;8.138;2023-11-19T05:48:26;11.50;99.90
33994;DHT22;20673;48.980;8.138;2023-11-19T05:50:52;11.50;99.90
33994;DHT22;20673;48.980;8.138;2023-11-19T05:53:19;11.50;99.90
33994;DHT22;20673;48.980;8.138;2023-11-19T05:55:45;11.60;99.90
33994;DHT22;20673;48.980;8.138;2023-11-19T05:58:25;11.50;99.90
33994;DHT22;20673;48.980;8.138;2023-11-19T06:00:52;11.60;99.90
33994;DHT22;20673;48.980;8.138;2023-11-19T06:03:18;11.60;99.90
33994;DHT22;20673;48.980;8.138;2023-11-19T06:05:45;11.60;99.90
33994;DHT22;20673;48.980;8.138;2023-11-19T06:08:12;11.60;99.90
33994;DHT22;20673;48.980;8.138;2023-11-19T06:10:42;11.60;99.90
33994;DHT22;20673;48.980;8.138;2023-11-19T06:13:09;11.60;99.90
33994;DHT22;20673;48.980;8.138;2023-11-19T06:15:37;11.60;99.90
33994;DHT22;20673;48.980;8.138;2023-11-19T06:18:03;11.60;99.90
33994;DHT22;20673;48.980;8.138;2023-11-19T06:20:30;11.70;99.90
33994;DHT22;20673;48.980;8.138;2023-11-19T06:22:57;11.70;99.90
33994;DHT22;20673;48.980;8.138;2023-11-19T06:25:23;11.70;99.90
33994;DHT22;20673;48.980;8.138;2023-11-19T06:27:50;11.70;99.90
33994;DHT22;20673;48.980;8.138;2023-11-19T06:30:17;11.70;99.90
33994;DHT22;20673;48.980;8.138;2023-11-19T06:32:44;11.80;99.90
33994;DHT22;20673;48.980;8.138;2023-11-19T06:35:11;11.70;99.90
33994;DHT22;20673;48.980;8.138;2023-11-19T06:37:40;11.70;99.90
33994;DHT22;20673;48.980;8.138;2023-11-19T06:40:08;11.70;99.90
33994;DHT22;20673;48.980;8.138;2023-11-19T06:42:35;11.70;99.90
33994;DHT22;20673;48.980;8.138;2023-11-19T06:45:02;11.70;99.90
33994;DHT22;20673;48.980;8.138;2023-11-19T06:47:29;11.80;99.90
33994;DHT22;20673;48.980;8.138;2023-11-19T06:49:56;11.70;99.90
33994;DHT22;20673;48.980;8.138;2023-11-19T06:52:22;11.70;99.90
33994;DHT22;20673;48.980;8.138;2023-11-19T06:54:48;11.80;99.90
33994;DHT22;20673;48.980;8.138;2023-11-19T06:57:14;11.80;99.90
33994;DHT22;20673;48.980;8.138;2023-11-19T06:59:40;11.90;99.90
33994;DHT22;20673;48.980;8.138;2023-11-19T07:02:06;11.90;99.90
33994;DHT22;20673;48.980;8.138;2023-11-19T07:04:32;11.90;99.90
33994;DHT22;20673;48.980;8.138;2023-11-19T07:07:01;11.90;99.90
33994;DHT22;20673;48.980;8.138;2023-11-19T07:09:28;11.90;99.90
33994;DHT22;20673;48.980;8.138;2023-11-19T07:11:54;11.80;99.90
33994;DHT22;20673;48.980;8.138;2023-11-19T07:14:20;11.90;99.90
33994;DHT22;20673;48.980;8.138;2023-11-19T07:16:48;11.90;99.90
33994;DHT22;20673;48.980;8.138;2023-11-19T07:19:15;11.90;99.90
33994;DHT22;20673;48.980;8.138;2023-11-19T07:21:42;11.90;99.90
33994;DHT22;20673;48.980;8.138;2023-11-19T07:24:10;11.90;99.90
33994;DHT22;20673;48.980;8.138;2023-11-19T07:26:41;12.00;99.90
33994;DHT22;20673;48.980;8.138;2023-11-19T07:29:09;12.00;99.90
33994;DHT22;20673;48.980;8.138;2023-11-19T07:31:36;12.10;99.90
33994;DHT22;20673;48.980;8.138;2023-11-19T07:34:02;12.20;99.90
33994;DHT22;20673;48.980;8.138;2023-11-19T07:36:29;12.30;99.90
33994;DHT22;20673;48.980;8.138;2023-11-19T07:38:56;12.30;99.90
33994;DHT22;20673;48.980;8.138;2023-11-19T07:41:23;12.30;99.90
33994;DHT22;20673;48.980;8.138;2023-11-19T07:43:51;12.30;99.90
33994;DHT22;20673;48.980;8.138;2023-11-19T07:46:18;12.30;99.90
33994;DHT22;20673;48.980;8.138;2023-11-19T07:48:45;12.30;99.90
33994;DHT22;20673;48.980;8.138;2023-11-19T07:51:14;12.30;99.90
33994;DHT22;20673;48.980;8.138;2023-11-19T07:53:41;12.20;99.90
33994;DHT22;20673;48.980;8.138;2023-11-19T07:56:08;12.20;99.90
33994;DHT22;20673;48.980;8.138;2023-11-19T07:58:34;12.20;99.90
33994;DHT22;20673;48.980;8.138;2023-11-19T08:01:00;12.20;99.90
33994;DHT22;20673;48.980;8.138;2023-11-19T08:03:29;12.20;99.90
33994;DHT22;20673;48.980;8.138;2023-11-19T08:05:56;12.30;99.90
33994;DHT22;20673;48.980;8.138;2023-11-19T08:08:25;12.30;99.90
33994;DHT22;20673;48.980;8.138;2023-11-19T08:10:52;12.30;99.90
33994;DHT22;20673;48.980;8.138;2023-11-19T08:13:19;12.30;99.90
33994;DHT22;20673;48.980;8.138;2023-11-19T08:15:45;12.30;99.90
33994;DHT22;20673;48.980;8.138;2023-11-19T08:18:13;12.40;99.90
33994;DHT22;20673;48.980;8.138;2023-11-19T08:20:39;12.40;99.90
33994;DHT22;20673;48.980;8.138;2023-11-19T08:23:05;12.50;99.90
33994;DHT22;20673;48.980;8.138;2023-11-19T08:25:32;12.50;99.90
33994;DHT22;20673;48.980;8.138;2023-11-19T08:27:59;12.60;99.90
33994;DHT22;20673;48.980;8.138;2023-11-19T08:30:26;12.60;99.90
33994;DHT22;20673;48.980;8.138;2023-11-19T08:32:52;12.60;99.90
33994;DHT22;20673;48.980;8.138;2023-11-19T08:35:19;12.60;99.90
33994;DHT22;20673;48.980;8.138;2023-11-19T08:37:45;12.60;99.90
33994;DHT22;20673;48.980;8.138;2023-11-19T08:40:11;12.60;99.90
33994;DHT22;20673;48.980;8.138;2023-11-19T08:42:40;12.70;99.90
33994;DHT22;20673;48.980;8.138;2023-11-19T08:45:07;12.60;99.90
33994;DHT22;20673;48.980;8.138;2023-11-19T08:47:36;12.60;99.90
33994;DHT22;20673;48.980;8.138;2023-11-19T08:50:03;12.70;99.90
33994;DHT22;20673;48.980;8.138;2023-11-19T08:52:30;12.60;99.90
33994;DHT22;20673;48.980;8.138;2023-11-19T08:54:56;12.70;99.90
33994;DHT22;20673;48.980;8.138;2023-11-19T08:57:23;12.80;99.90
33994;DHT22;20673;48.980;8.138;2023-11-19T08:59:49;12.80;99.90
33994;DHT22;20673;48.980;8.138;2023-11-19T09:02:15;12.80;99.90
33994;DHT22;20673;48.980;8.138;2023-11-19T09:04:42;12.80;99.90
33994;DHT22;20673;48.980;8.138;2023-11-19T09:07:08;12.80;99.90
33994;DHT22;20673;48.980;8.138;2023-11-19T09:09:37;12.80;99.90
33994;DHT22;20673;48.980;8.138;2023-11-19T09:12:03;12.90;99.90
33994;DHT22;20673;48.980;8.138;2023-11-19T09:14:30;12.90;99.90
33994;DHT22;20673;48.980;8.138;2023-11-19T09:16:56;12.90;99.90
33994;DHT22;20673;48.980;8.138;2023-11-19T09:19:24;12.90;99.90
33994;DHT22;20673;48.980;8.138;2023-11-19T09:21:52;13.00;99.90
33994;DHT22;20673;48.980;8.138;2023-11-19T09:24:19;13.10;99.90
33994;DHT22;20673;48.980;8.138;2023-11-19T09:26:47;13.10;99.90
33994;DHT22;20673;48.980;8.138;2023-11-19T09:29:13;13.20;99.90
33994;DHT22;20673;48.980;8.138;2023-11-19T09:31:42;13.20;99.90
33994;DHT22;20673;48.980;8.138;2023-11-19T09:34:08;13.30;99.90
33994;DHT22;20673;48.980;8.138;2023-11-19T09:36:34;13.30;99.90
33994;DHT22;20673;48.980;8.138;2023-11-19T09:39:00;13.40;99.90
33994;DHT22;20673;48.980;8.138;2023-11-19T09:41:27;13.40;99.90
33994;DHT22;20673;48.980;8.138;2023-11-19T09:43:56;13.60;99.90
33994;DHT22;20673;48.980;8.138;2023-11-19T09:46:22;13.70;99.90
33994;DHT22;20673;48.980;8.138;2023-11-19T09:48:56;13.80;99.90
33994;DHT22;20673;48.980;8.138;2023-11-19T09:51:21;13.90;99.90
33994;DHT22;20673;48.980;8.138;2023-11-19T09:53:48;13.90;99.90
33994;DHT22;20673;48.980;8.138;2023-11-19T09:56:15;13.90;99.90
33994;DHT22;20673;48.980;8.138;2023-11-19T09:58:44;13.90;99.90
33994;DHT22;20673;48.980;8.138;2023-11-19T10:01:10;13.90;99.90
33994;DHT22;20673;48.980;8.138;2023-11-19T10:03:39;13.90;99.90
33994;DHT22;20673;48.980;8.138;2023-11-19T10:06:07;14.00;99.90
33994;DHT22;20673;48.980;8.138;2023-11-19T10:08:37;14.00;99.90
33994;DHT22;20673;48.980;8.138;2023-11-19T10:11:10;14.00;99.90
33994;DHT22;20673;48.980;8.138;2023-11-19T10:13:35;14.20;99.90
33994;DHT22;20673;48.980;8.138;2023-11-19T10:16:08;14.20;99.90
33994;DHT22;20673;48.980;8.138;2023-11-19T10:18:37;14.50;99.90
33994;DHT22;20673;48.980;8.138;2023-11-19T10:21:06;14.60;99.90
33994;DHT22;20673;48.980;8.138;2023-11-19T10:23:51;14.60;99.90
33994;DHT22;20673;48.980;8.138;2023-11-19T10:26:20;14.70;99.90
33994;DHT22;20673;48.980;8.138;2023-11-19T10:28:47;14.80;99.90
33994;DHT22;20673;48.980;8.138;2023-11-19T10:31:18;15.20;99.90
33994;DHT22;20673;48.980;8.138;2023-11-19T10:33:48;15.50;99.90
33994;DHT22;20673;48.980;8.138;2023-11-19T10:36:14;15.50;99.90
33994;DHT22;20673;48.980;8.138;2023-11-19T10:38:41;15.40;99.90
33994;DHT22;20673;48.980;8.138;2023-11-19T10:41:31;15.20;99.90
33994;DHT22;20673;48.980;8.138;2023-11-19T10:43:58;15.20;99.90
33994;DHT22;20673;48.980;8.138;2023-11-19T10:46:36;15.10;99.90
33994;DHT22;20673;48.980;8.138;2023-11-19T10:49:09;15.00;99.90
33994;DHT22;20673;48.980;8.138;2023-11-19T10:51:36;15.40;99.90
33994;DHT22;20673;48.980;8.138;2023-11-19T10:54:05;15.50;99.90
33994;DHT22;20673;48.980;8.138;2023-11-19T10:56:33;15.60;99.90
33994;DHT22;20673;48.980;8.138;2023-11-19T10:59:00;15.50;99.90
33994;DHT22;20673;48.980;8.138;2023-11-19T11:01:48;15.40;99.90
33994;DHT22;20673;48.980;8.138;2023-11-19T11:04:11;15.30;99.90
33994;DHT22;20673;48.980;8.138;2023-11-19T11:06:41;15.70;99.90
33994;DHT22;20673;48.980;8.138;2023-11-19T11:09:09;15.80;99.90
33994;DHT22;20673;48.980;8.138;2023-11-19T11:11:40;15.80;99.90
33994;DHT22;20673;48.980;8.138;2023-11-19T11:14:11;16.00;99.90
33994;DHT22;20673;48.980;8.138;2023-11-19T11:16:42;16.60;99.90
33994;DHT22;20673;48.980;8.138;2023-11-19T11:19:10;17.10;99.90
33994;DHT22;20673;48.980;8.138;2023-11-19T11:21:40;16.90;99.90
33994;DHT22;20673;48.980;8.138;2023-11-19T11:30:13;17.90;99.90
33994;DHT22;20673;48.980;8.138;2023-11-19T11:38:40;18.30;50.40
33994;DHT22;20673;48.980;8.138;2023-11-19T11:41:19;17.40;57.70
33994;DHT22;20673;48.980;8.138;2023-11-19T11:43:55;17.30;71.90
33994;DHT22;20673;48.980;8.138;2023-11-19T11:49:08;18.10;48.70
33994;DHT22;20673;48.980;8.138;2023-11-19T11:57:08;18.80;27.00
33994;DHT22;20673;48.980;8.138;2023-11-19T11:59:46;18.50;27.50
33994;DHT22;20673;48.980;8.138;2023-11-19T12:02:15;18.00;32.70
33994;DHT22;20673;48.980;8.138;2023-11-19T12:04:51;18.00;31.60
33994;DHT22;20673;48.980;8.138;2023-11-19T12:07:21;17.80;46.80
33994;DHT22;20673;48.980;8.138;2023-11-19T12:09:51;17.30;56.30
33994;DHT22;20673;48.980;8.138;2023-11-19T12:12:35;16.90;66.90
33994;DHT22;20673;48.980;8.138;2023-11-19T12:15:11;16.70;91.10
33994;DHT22;20673;48.980;8.138;2023-11-19T12:17:48;16.50;92.70
33994;DHT22;20673;48.980;8.138;2023-11-19T12:20:18;16.50;95.70
33994;DHT22;20673;48.980;8.138;2023-11-19T12:22:47;16.40;91.60
33994;DHT22;20673;48.980;8.138;2023-11-19T12:25:16;16.30;93.40
33994;DHT22;20673;48.980;8.138;2023-11-19T12:27:46;16.30;88.20
33994;DHT22;20673;48.980;8.138;2023-11-19T12:30:23;16.20;90.80
33994;DHT22;20673;48.980;8.138;2023-11-19T12:32:50;16.10;83.10
33994;DHT22;20673;48.980;8.138;2023-11-19T12:35:19;15.90;91.50
33994;DHT22;20673;48.980;8.138;2023-11-19T12:37:47;15.80;94.10
33994;DHT22;20673;48.980;8.138;2023-11-19T12:42:46;15.70;99.90
33994;DHT22;20673;48.980;8.138;2023-11-19T12:45:15;15.60;99.80
33994;DHT22;20673;48.980;8.138;2023-11-19T12:47:43;15.60;94.50
33994;DHT22;20673;48.980;8.138;2023-11-19T12:50:10;15.60;96.10
33994;DHT22;20673;48.980;8.138;2023-11-19T12:52:36;15.60;96.30
33994;DHT22;20673;48.980;8.138;2023-11-19T12:55:23;16.10;75.70
33994;DHT22;20673;48.980;8.138;2023-11-19T12:57:41;16.50;60.50
33994;DHT22;20673;48.980;8.138;2023-11-19T13:00:19;17.10;41.90
33994;DHT22;20673;48.980;8.138;2023-11-19T13:02:51;17.70;31.30
33994;DHT22;20673;48.980;8.138;2023-11-19T13:05:32;17.90;23.80
33994;DHT22;20673;48.980;8.138;2023-11-19T13:08:08;17.80;28.70
33994;DHT22;20673;48.980;8.138;2023-11-19T13:10:52;17.40;21.30
33994;DHT22;20673;48.980;8.138;2023-11-19T13:13:20;17.20;32.60
33994;DHT22;20673;48.980;8.138;2023-11-19T13:15:46;17.20;26.10
33994;DHT22;20673;48.980;8.138;2023-11-19T13:18:16;16.80;28.00
33994;DHT22;20673;48.980;8.138;2023-11-19T13:20:42;16.90;39.00
33994;DHT22;20673;48.980;8.138;2023-11-19T13:23:08;17.40;30.80
33994;DHT22;20673;48.980;8.138;2023-11-19T13:25:36;17.80;8.00
33994;DHT22;20673;48.980;8.138;2023-11-19T13:28:02;18.10;8.70
33994;DHT22;20673;48.980;8.138;2023-11-19T13:30:29;18.30;1.00
33994;DHT22;20673;48.980;8.138;2023-11-19T13:32:55;18.40;1.00
33994;DHT22;20673;48.980;8.138;2023-11-19T13:35:22;18.70;1.00
33994;DHT22;20673;48.980;8.138;2023-11-19T13:37:48;18.30;1.00
33994;DHT22;20673;48.980;8.138;2023-11-19T13:40:15;18.10;1.00
33994;DHT22;20673;48.980;8.138;2023-11-19T13:42:42;17.70;1.00
33994;DHT22;20673;48.980;8.138;2023-11-19T13:45:09;17.20;3.50
33994;DHT22;20673;48.980;8.138;2023-11-19T13:47:38;16.50;22.00
33994;DHT22;20673;48.980;8.138;2023-11-19T13:50:12;16.20;34.20
33994;DHT22;20673;48.980;8.138;2023-11-19T13:52:41;16.00;48.60
33994;DHT22;20673;48.980;8.138;2023-11-19T13:55:09;15.80;57.70
33994;DHT22;20673;48.980;8.138;2023-11-19T13:57:36;15.70;66.40
33994;DHT22;20673;48.980;8.138;2023-11-19T14:00:04;15.50;70.20
33994;DHT22;20673;48.980;8.138;2023-11-19T14:02:40;15.50;75.00
33994;DHT22;20673;48.980;8.138;2023-11-19T14:05:07;15.40;75.20
33994;DHT22;20673;48.980;8.138;2023-11-19T14:07:33;15.30;81.50
33994;DHT22;20673;48.980;8.138;2023-11-19T14:10:00;15.30;88.30
33994;DHT22;20673;48.980;8.138;2023-11-19T14:12:26;15.20;81.20
33994;DHT22;20673;48.980;8.138;2023-11-19T14:14:52;15.10;84.50
33994;DHT22;20673;48.980;8.138;2023-11-19T14:17:18;15.10;46.70
33994;DHT22;20673;48.980;8.138;2023-11-19T14:19:44;15.10;40.30
33994;DHT22;20673;48.980;8.138;2023-11-19T14:22:10;15.00;28.60
33994;DHT22;20673;48.980;8.138;2023-11-19T14:24:37;14.90;37.10
33994;DHT22;20673;48.980;8.138;2023-11-19T14:27:05;14.90;42.70
33994;DHT22;20673;48.980;8.138;2023-11-19T14:29:31;14.90;41.20
33994;DHT22;20673;48.980;8.138;2023-11-19T14:31:57;14.90;33.80
33994;DHT22;20673;48.980;8.138;2023-11-19T14:34:24;15.00;24.40
33994;DHT22;20673;48.980;8.138;2023-11-19T14:36:52;15.10;27.10
33994;DHT22;20673;48.980;8.138;2023-11-19T14:39:19;15.10;26.40
33994;DHT22;20673;48.980;8.138;2023-11-19T14:41:45;15.10;25.90
33994;DHT22;20673;48.980;8.138;2023-11-19T14:44:11;15.10;22.70
33994;DHT22;20673;48.980;8.138;2023-11-19T14:46:38;15.00;21.80
33994;DHT22;20673;48.980;8.138;2023-11-19T14:49:04;15.00;8.30
33994;DHT22;20673;48.980;8.138;2023-11-19T14:51:31;15.00;20.50
33994;DHT22;20673;48.980;8.138;2023-11-19T14:53:57;15.00;16.50
33994;DHT22;20673;48.980;8.138;2023-11-19T14:56:23;14.90;8.60
33994;DHT22;20673;48.980;8.138;2023-11-19T14:58:49;14.90;21.00
33994;DHT22;20673;48.980;8.138;2023-11-19T15:01:17;15.00;22.70
33994;DHT22;20673;48.980;8.138;2023-11-19T15:03:44;15.10;22.50
33994;DHT22;20673;48.980;8.138;2023-11-19T15:06:10;15.10;42.70
33994;DHT22;20673;48.980;8.138;2023-11-19T15:08:37;15.00;31.30
33994;DHT22;20673;48.980;8.138;2023-11-19T15:11:03;15.00;31.80
33994;DHT22;20673;48.980;8.138;2023-11-19T15:13:32;15.00;42.40
33994;DHT22;20673;48.980;8.138;2023-11-19T15:15:59;15.00;47.70
33994;DHT22;20673;48.980;8.138;2023-11-19T15:18:25;15.00;44.40
33994;DHT22;20673;48.980;8.138;2023-11-19T15:20:51;15.00;34.90
33994;DHT22;20673;48.980;8.138;2023-11-19T15:23:17;15.00;29.00
33994;DHT22;20673;48.980;8.138;2023-11-19T15:25:45;14.90;47.80
33994;DHT22;20673;48.980;8.138;2023-11-19T15:28:11;14.70;64.70
33994;DHT22;20673;48.980;8.138;2023-11-19T15:30:37;14.60;50.30
33994;DHT22;20673;48.980;8.138;2023-11-19T15:33:03;14.60;41.80
33994;DHT22;20673;48.980;8.138;2023-11-19T15:35:29;14.50;44.30
33994;DHT22;20673;48.980;8.138;2023-11-19T15:37:55;14.50;55.90
33994;DHT22;20673;48.980;8.138;2023-11-19T15:40:22;14.40;48.80
33994;DHT22;20673;48.980;8.138;2023-11-19T15:42:48;14.40;56.10
33994;DHT22;20673;48.980;8.138;2023-11-19T15:45:14;14.30;57.70
33994;DHT22;20673;48.980;8.138;2023-11-19T15:47:42;14.30;59.00
33994;DHT22;20673;48.980;8.138;2023-11-19T15:50:08;14.30;76.20
33994;DHT22;20673;48.980;8.138;2023-11-19T15:52:35;14.20;76.10
33994;DHT22;20673;48.980;8.138;2023-11-19T15:55:02;14.10;65.20
33994;DHT22;20673;48.980;8.138;2023-11-19T15:57:28;14.20;58.40
33994;DHT22;20673;48.980;8.138;2023-11-19T15:59:54;14.20;77.20